createdAt,value
2018-08-10T03:00:58.345Z,75.06
2018-08-10T03:01:58.603Z,74.93
2018-08-10T03:03:59.204Z,75.25
2018-08-10T03:04:59.561Z,74.29
2018-08-10T03:05:59.026Z,74.96
2018-08-10T03:06:59.335Z,75.06
2018-08-10T03:07:59.306Z,74.87
2018-08-10T03:08:57.814Z,74.96
2018-08-10T03:09:57.700Z,74.96
2018-08-10T03:10:57.814Z,75.02
2018-08-10T03:11:58.037Z,74.73
2018-08-10T03:12:58.165Z,74.48
2018-08-10T03:13:58.387Z,74.48
2018-08-10T03:14:58.590Z,74.83
2018-08-10T03:15:58.764Z,74.96
2018-08-10T03:16:58.903Z,74.73
2018-08-10T03:17:59.077Z,74.73
2018-08-10T03:18:59.228Z,74.54
2018-08-10T03:19:59.318Z,74.83
2018-08-10T03:20:59.553Z,75.31
2018-08-10T03:21:59.695Z,75.02
2018-08-10T03:22:59.894Z,74.96
2018-08-10T03:24:00.069Z,74.96
2018-08-10T03:25:00.164Z,74.87
2018-08-10T03:26:00.381Z,74.29
2018-08-10T03:27:00.480Z,74.87
2018-08-10T03:28:00.760Z,74.10
2018-08-10T03:29:00.851Z,74.29
2018-08-10T03:30:01.030Z,74.39
2018-08-10T03:31:01.205Z,73.72
2018-08-10T03:32:01.406Z,73.72
2018-08-10T03:33:01.548Z,74.01
2018-08-10T03:34:01.686Z,75.06
2018-08-10T03:35:01.879Z,74.01
2018-08-10T03:36:01.976Z,74.29
2018-08-10T03:37:02.200Z,73.62
2018-08-10T03:38:02.216Z,74.10
2018-08-10T03:39:02.510Z,74.68
2018-08-10T03:40:02.614Z,74.96
2018-08-10T03:41:02.753Z,74.29
2018-08-10T03:42:02.963Z,74.10
2018-08-10T03:43:03.155Z,74.01
2018-08-10T03:44:03.315Z,73.91
2018-08-10T03:45:03.542Z,73.91
2018-08-10T03:46:03.581Z,73.91
2018-08-10T03:47:03.815Z,73.75
2018-08-10T03:48:04.009Z,73.75
2018-08-10T03:49:04.112Z,73.85
2018-08-10T03:50:04.354Z,73.81
2018-08-10T03:51:04.484Z,73.91
2018-08-10T03:52:04.588Z,75.06
2018-08-10T03:53:04.802Z,75.63
2018-08-10T03:54:04.973Z,75.73
2018-08-10T03:55:05.176Z,75.25
2018-08-10T03:56:05.365Z,75.06
2018-08-10T03:57:05.492Z,75.82
2018-08-10T03:58:05.637Z,76.02
2018-08-10T03:59:05.835Z,76.02
2018-08-10T04:00:06.014Z,75.82
2018-08-10T04:01:06.335Z,75.06
2018-08-10T04:02:06.247Z,75.63
2018-08-10T04:03:06.527Z,75.45
2018-08-10T04:04:06.672Z,75.63
2018-08-10T04:05:06.804Z,74.87
2018-08-10T04:06:06.980Z,75.73
2018-08-10T04:07:07.105Z,75.92
2018-08-10T04:08:07.295Z,76.21
2018-08-10T04:09:07.469Z,76.40
2018-08-10T04:10:07.544Z,76.21
2018-08-10T04:11:07.883Z,75.89
2018-08-10T04:12:08.070Z,76.17
2018-08-10T04:13:08.142Z,75.60
2018-08-10T04:14:08.310Z,75.89
2018-08-10T04:15:08.495Z,75.98
2018-08-10T04:16:08.715Z,76.37
2018-08-10T04:17:08.746Z,76.07
2018-08-10T04:18:08.925Z,75.50
2018-08-10T04:19:09.164Z,75.12
2018-08-10T04:20:09.251Z,75.79
2018-08-10T04:21:09.533Z,75.31
2018-08-10T04:22:09.640Z,74.64
2018-08-10T04:23:09.737Z,74.73
2018-08-10T04:24:09.994Z,74.54
2018-08-10T04:25:10.272Z,75.02
2018-08-10T04:26:10.405Z,74.06
2018-08-10T04:27:10.468Z,73.20
2018-08-10T04:28:10.681Z,73.49
2018-08-10T04:29:10.847Z,72.91
2018-08-10T04:30:11.137Z,73.10
2018-08-10T04:31:11.166Z,73.87
2018-08-10T04:32:11.321Z,73.87
2018-08-10T04:33:11.588Z,73.49
2018-08-10T04:34:11.696Z,73.77
2018-08-10T04:35:11.945Z,73.30
2018-08-10T04:36:12.051Z,72.53
2018-08-10T04:37:12.196Z,72.72
2018-08-10T04:38:12.357Z,72.53
2018-08-10T04:39:12.527Z,72.63
2018-08-10T04:40:12.740Z,73.20
2018-08-10T04:41:12.977Z,72.91
2018-08-10T04:42:13.098Z,73.16
2018-08-10T04:43:13.271Z,72.78
2018-08-10T04:44:13.421Z,72.63
2018-08-10T04:45:13.536Z,72.49
2018-08-10T04:46:13.754Z,72.14
2018-08-10T04:47:13.924Z,72.24
2018-08-10T04:48:14.171Z,72.01
2018-08-10T04:49:14.319Z,71.92
2018-08-10T04:50:14.385Z,72.05
2018-08-10T04:51:14.634Z,71.76
2018-08-10T04:52:14.817Z,71.44
2018-08-10T04:53:14.891Z,71.82
2018-08-10T04:54:15.085Z,71.86
2018-08-10T04:55:15.367Z,71.76
2018-08-10T04:56:15.355Z,72.01
2018-08-10T04:57:15.576Z,72.11
2018-08-10T04:58:15.768Z,72.30
2018-08-10T04:59:15.932Z,71.92
2018-08-10T05:00:16.098Z,72.11
2018-08-10T05:01:16.210Z,72.20
2018-08-10T05:02:16.410Z,72.11
2018-08-10T05:03:16.627Z,72.11
2018-08-10T05:04:16.745Z,72.20
2018-08-10T05:05:16.941Z,72.01
2018-08-10T05:06:17.147Z,72.11
2018-08-10T05:07:17.315Z,71.05
2018-08-10T05:08:17.466Z,71.72
2018-08-10T05:09:17.598Z,71.72
2018-08-10T05:10:17.789Z,71.15
2018-08-10T05:11:18.013Z,70.76
2018-08-10T05:12:18.098Z,71.15
2018-08-10T05:13:18.309Z,70.57
2018-08-10T05:14:18.484Z,70.86
2018-08-10T05:15:18.696Z,71.25
2018-08-10T05:16:19.034Z,70.96
2018-08-10T05:17:19.025Z,70.67
2018-08-10T05:18:19.144Z,70.86
2018-08-10T05:19:19.356Z,71.15
2018-08-10T05:20:19.501Z,70.76
2018-08-10T05:21:19.607Z,71.25
2018-08-10T05:22:19.829Z,71.05
2018-08-10T05:23:20.126Z,71.34
2018-08-10T05:24:20.297Z,70.96
2018-08-10T05:25:20.379Z,70.86
2018-08-10T05:26:20.635Z,71.72
2018-08-10T05:27:22.441Z,72.01
2018-08-10T05:28:33.183Z,71.44
2018-08-10T05:29:23.918Z,70.57
2018-08-10T05:30:21.693Z,71.25
2018-08-10T05:31:24.178Z,70.76
2018-08-10T05:32:26.285Z,70.19
2018-08-10T05:33:24.242Z,70.76
2018-08-10T05:43:05.629Z,69.04
2018-08-10T06:05:41.215Z,70.99
2018-08-10T06:06:40.794Z,70.45
2018-08-10T08:09:21.054Z,55.12
2018-08-10T09:33:13.469Z,42.28
2018-08-10T09:47:01.473Z,41.06
2018-08-10T09:59:16.996Z,39.45
2018-08-10T10:00:13.868Z,39.62
2018-08-10T10:01:19.049Z,39.78
2018-08-10T10:05:57.588Z,40.21
2018-08-10T10:06:53.997Z,40.69
2018-08-10T10:38:56.814Z,29.36
2018-08-10T10:39:51.805Z,29.47
2018-08-10T10:41:49.031Z,28.88
2018-08-10T10:55:01.246Z,27.59
2018-08-10T10:58:58.800Z,28.29
2018-08-10T10:59:59.129Z,28.67
2018-08-10T11:00:55.846Z,28.57
2018-08-10T11:01:54.683Z,28.16
2018-08-10T11:02:54.811Z,28.75
2018-08-10T11:03:54.909Z,27.59
2018-08-10T11:04:55.211Z,28.58
2018-08-10T11:05:57.238Z,27.54
2018-08-10T11:06:55.967Z,26.09
2018-08-10T11:07:56.193Z,26.09
2018-08-10T11:08:56.192Z,26.97
2018-08-10T11:09:55.951Z,25.90
2018-08-10T11:10:56.865Z,25.88
2018-08-10T11:11:57.154Z,26.53
2018-08-10T11:13:56.877Z,29.66
2018-08-10T11:14:57.107Z,31.13
2018-08-10T11:15:57.384Z,30.64
2018-08-10T11:16:58.381Z,31.19
2018-08-10T11:17:57.633Z,32.37
2018-08-10T11:18:57.829Z,32.20
2018-08-10T11:20:59.261Z,30.14
2018-08-10T11:21:58.471Z,30.15
2018-08-10T11:22:59.202Z,29.50
2018-08-10T11:23:59.254Z,29.02
2018-08-10T11:25:00.597Z,29.29
2018-08-10T11:25:59.238Z,30.33
2018-08-10T11:27:00.019Z,30.71
2018-08-10T11:28:00.290Z,31.19
2018-08-10T11:29:33.507Z,31.10
2018-08-10T11:31:00.365Z,30.80
2018-08-10T11:32:00.751Z,32.04
2018-08-10T11:33:00.693Z,32.32
2018-08-10T11:34:01.326Z,31.85
2018-08-10T11:35:01.030Z,32.41
2018-08-10T11:36:01.296Z,32.64
2018-08-10T11:37:02.073Z,31.85
2018-08-10T11:38:05.306Z,31.11
2018-08-10T11:39:03.110Z,29.29
2018-08-10T11:40:01.944Z,29.46
2018-08-10T11:41:02.152Z,30.71
2018-08-10T11:42:02.561Z,29.96
2018-08-10T11:43:02.440Z,29.39
2018-08-10T11:44:02.871Z,28.82
2018-08-10T11:45:04.282Z,28.34
2018-08-10T11:46:03.745Z,27.18
2018-08-10T11:47:03.167Z,28.32
2018-08-10T11:48:03.202Z,28.03
2018-08-10T11:49:03.772Z,28.42
2018-08-10T12:03:43.175Z,24.36
2018-08-10T12:10:27.026Z,22.51
2018-08-10T12:11:02.853Z,22.12
2018-08-10T12:13:44.230Z,22.97
2018-08-10T12:14:42.615Z,22.50
2018-08-10T12:15:41.862Z,21.83
2018-08-10T12:16:42.134Z,21.26
2018-08-10T12:17:43.249Z,20.85
2018-08-10T12:18:42.283Z,21.24
2018-08-10T12:19:42.735Z,22.50
2018-08-10T12:20:42.720Z,23.65
2018-08-10T12:21:43.064Z,24.19
2018-08-10T12:22:43.125Z,25.05
2018-08-10T12:23:43.638Z,26.10
2018-08-10T12:24:43.391Z,26.37
2018-08-10T12:25:43.764Z,26.86
2018-08-10T12:26:43.658Z,27.23
2018-08-10T12:27:43.757Z,27.33
2018-08-10T12:28:44.075Z,27.22
2018-08-10T12:29:44.080Z,27.50
2018-08-10T12:30:44.309Z,27.87
2018-08-10T12:31:44.564Z,27.23
2018-08-10T12:32:44.647Z,25.82
2018-08-10T12:33:45.529Z,24.67
2018-08-10T12:34:45.591Z,24.01
2018-08-10T12:35:45.476Z,24.52
2018-08-10T12:37:46.725Z,24.22
2018-08-10T12:37:48.859Z,22.19
2018-08-10T12:38:48.140Z,22.30
2018-08-10T12:39:48.357Z,22.41
2018-08-10T12:40:48.454Z,22.41
2018-08-10T12:41:48.654Z,21.15
2018-08-10T12:42:49.118Z,20.57
2018-08-10T12:43:49.358Z,20.88
2018-08-10T12:44:49.452Z,21.56
2018-08-10T12:45:50.048Z,20.77
2018-08-10T12:46:50.360Z,21.37
2018-08-10T12:47:50.050Z,20.12
2018-08-10T12:48:50.412Z,19.62
2018-08-10T12:49:50.497Z,20.41
2018-08-10T12:51:51.627Z,19.43
2018-08-10T12:54:24.330Z,19.41
2018-08-10T12:58:54.024Z,19.51
2018-08-10T12:59:17.560Z,18.85
2018-08-10T13:00:17.433Z,19.14
2018-08-10T13:01:17.705Z,19.04
2018-08-10T13:03:18.750Z,19.43
2018-08-10T13:04:44.423Z,19.02
2018-08-10T13:06:55.143Z,20.21
2018-08-10T13:09:41.691Z,20.51
2018-08-10T13:13:25.512Z,19.12
2018-08-10T13:20:35.969Z,25.32
2018-08-10T13:23:38.018Z,26.57
2018-08-10T13:23:46.732Z,26.37
2018-08-10T13:26:02.679Z,26.07
2018-08-10T13:27:19.782Z,27.22
2018-08-10T13:27:54.822Z,27.11
2018-08-10T13:30:21.855Z,28.07
2018-08-10T13:31:14.383Z,28.25
2018-08-10T13:32:49.978Z,29.79
2018-08-10T13:33:49.628Z,29.61
2018-08-10T13:34:47.985Z,29.50
2018-08-10T13:35:46.127Z,29.61
2018-08-10T13:37:46.298Z,28.58
2018-08-10T13:38:46.648Z,28.28
2018-08-10T13:39:46.673Z,28.38
2018-08-10T13:40:47.830Z,28.18
2018-08-10T13:41:47.016Z,28.30
2018-08-10T13:42:47.871Z,27.39
2018-08-10T13:43:47.235Z,27.31
2018-08-10T13:44:47.375Z,26.34
2018-08-10T13:45:47.771Z,24.98
2018-08-10T13:46:48.008Z,24.51
2018-08-10T13:47:48.150Z,24.51
2018-08-10T13:48:48.239Z,24.10
2018-08-10T13:49:48.871Z,24.46
2018-08-10T13:50:48.919Z,26.58
2018-08-10T13:51:49.349Z,27.15
2018-08-10T13:52:49.794Z,27.23
2018-08-10T13:53:50.206Z,27.51
2018-08-10T13:54:49.344Z,28.20
2018-08-10T13:55:49.467Z,28.19
2018-08-10T13:56:49.793Z,29.26
2018-08-10T13:57:50.493Z,28.58
2018-08-10T13:58:50.199Z,28.08
2018-08-10T13:59:50.590Z,28.66
2018-08-10T14:00:50.364Z,29.08
2018-08-10T14:01:50.992Z,27.37
2018-08-10T14:02:50.887Z,25.85
2018-08-10T14:03:52.200Z,24.04
2018-08-10T14:04:52.671Z,23.38
2018-08-10T14:05:53.301Z,22.41
2018-08-10T14:06:51.493Z,22.39
2018-08-10T14:07:53.944Z,22.86
2018-08-10T14:08:52.859Z,24.08
2018-08-10T14:09:52.064Z,25.91
2018-08-10T14:10:52.105Z,27.16
2018-08-10T14:11:52.426Z,27.54
2018-08-10T14:12:52.566Z,27.23
2018-08-10T14:13:52.562Z,27.51
2018-08-10T14:14:53.672Z,28.28
2018-08-10T14:16:13.906Z,28.45
2018-08-10T14:19:30.021Z,29.82
2018-08-10T14:20:32.228Z,29.71
2018-08-10T14:21:31.759Z,29.22
2018-08-10T14:23:32.765Z,29.71
2018-08-10T14:24:32.676Z,30.29
2018-08-10T14:25:37.517Z,31.73
2018-08-10T14:26:35.764Z,31.63
2018-08-10T14:27:31.555Z,31.23
2018-08-10T14:28:47.547Z,32.39
2018-08-10T14:30:46.903Z,33.36
2018-08-10T14:31:32.269Z,32.37
2018-08-10T14:32:33.197Z,32.28
2018-08-10T14:33:34.620Z,32.37
2018-08-10T14:34:37.279Z,33.54
2018-08-10T14:35:42.849Z,33.44
2018-08-10T14:36:42.213Z,33.44
2018-08-10T14:37:33.311Z,33.06
2018-08-10T14:38:35.210Z,32.89
2018-08-10T14:41:56.083Z,31.08
2018-08-10T14:42:57.939Z,30.48
2018-08-10T14:44:26.014Z,31.26
2018-08-10T14:44:57.785Z,30.66
2018-08-10T14:47:03.039Z,31.71
2018-08-10T14:48:57.796Z,33.04
2018-08-10T14:50:00.000Z,33.23
2018-08-10T14:50:57.231Z,33.42
2018-08-10T14:51:57.868Z,33.62
2018-08-10T14:53:57.233Z,34.01
2018-08-10T14:54:56.559Z,34.39
2018-08-10T14:55:55.631Z,33.81
2018-08-10T14:56:55.924Z,33.81
2018-08-10T14:57:56.047Z,33.62
2018-08-10T14:58:56.141Z,33.70
2018-08-10T14:59:57.513Z,34.11
2018-08-10T15:01:56.710Z,33.99
2018-08-10T15:02:56.921Z,34.59
2018-08-10T15:03:56.968Z,34.19
2018-08-10T15:04:57.293Z,34.49
2018-08-10T15:05:57.390Z,34.69
2018-08-10T15:06:57.564Z,34.69
2018-08-10T15:07:57.748Z,34.88
2018-08-10T15:08:57.964Z,34.59
2018-08-10T15:09:58.158Z,34.61
2018-08-10T15:10:58.271Z,33.57
2018-08-10T15:12:11.974Z,33.11
2018-08-10T15:12:59.145Z,31.50
2018-08-10T15:13:58.831Z,29.78
2018-08-10T15:14:59.192Z,30.44
2018-08-10T15:15:59.126Z,30.43
2018-08-10T15:16:59.712Z,30.43
2018-08-10T15:17:59.568Z,30.41
2018-08-10T15:19:00.019Z,31.08
2018-08-10T15:20:02.461Z,31.37
2018-08-10T15:21:00.113Z,31.66
2018-08-10T15:22:00.318Z,31.65
2018-08-10T15:23:00.592Z,32.23
2018-08-10T15:24:00.691Z,32.31
2018-08-10T15:25:01.009Z,33.17
2018-08-10T15:26:01.003Z,33.56
2018-08-10T15:27:01.202Z,33.36
2018-08-10T15:28:01.581Z,33.54
2018-08-10T15:29:01.616Z,33.73
2018-08-10T15:30:02.634Z,33.62
2018-08-10T15:31:01.814Z,34.97
2018-08-10T15:32:02.816Z,33.57
2018-08-10T15:33:02.336Z,31.37
2018-08-10T15:34:02.409Z,30.22
2018-08-10T15:37:42.334Z,27.37
2018-08-10T15:39:50.373Z,26.52
2018-08-10T15:40:39.934Z,26.51
2018-08-10T15:41:42.271Z,27.47
2018-08-10T15:44:40.903Z,30.01
2018-08-10T15:45:38.846Z,30.48
2018-08-10T15:46:42.418Z,30.66
2018-08-10T15:48:39.026Z,30.85
2018-08-10T15:49:38.855Z,30.58
2018-08-10T15:50:39.127Z,29.93
2018-08-10T15:51:39.808Z,29.64
2018-08-10T15:52:39.394Z,29.83
2018-08-10T15:53:39.589Z,30.59
2018-08-10T15:54:39.609Z,30.59
2018-08-10T15:58:43.206Z,33.64
2018-08-10T16:01:43.438Z,33.70
2018-08-10T16:02:42.291Z,33.91
2018-08-10T16:03:41.427Z,33.12
2018-08-10T16:04:45.451Z,33.87
2018-08-10T16:09:33.857Z,35.31
2018-08-10T16:10:26.494Z,36.10
2018-08-10T16:11:27.599Z,35.25
2018-08-10T16:12:25.591Z,33.89
2018-08-10T16:13:25.712Z,34.57
2018-08-10T16:14:26.879Z,33.70
2018-08-10T16:15:25.925Z,34.09
2018-08-10T16:17:26.089Z,35.64
2018-08-10T16:18:27.042Z,34.77
2018-08-10T16:20:26.643Z,33.80
2018-08-10T16:21:26.631Z,34.94
2018-08-10T16:22:27.042Z,34.94
2018-08-10T16:23:28.715Z,35.42
2018-08-10T16:25:28.441Z,36.10
2018-08-10T16:26:27.525Z,36.30
2018-08-10T16:27:27.557Z,36.22
2018-08-10T16:28:28.759Z,36.02
2018-08-10T16:29:28.027Z,36.02
2018-08-10T16:34:33.523Z,35.31
2018-08-10T16:35:59.956Z,36.47
2018-08-10T16:36:59.604Z,36.26
2018-08-10T16:37:59.860Z,36.55
2018-08-10T16:39:00.453Z,36.46
2018-08-10T16:48:19.332Z,36.00
2018-08-10T17:01:20.881Z,34.75
2018-08-10T17:23:48.197Z,36.65
2018-08-10T19:38:59.778Z,56.01
2018-08-10T19:39:59.164Z,56.40
2018-08-10T20:22:53.114Z,59.80
2018-08-10T20:37:46.858Z,61.78
2018-08-10T20:38:36.660Z,61.88
2018-08-10T20:39:36.828Z,61.49
2018-08-10T20:42:15.261Z,61.69
2018-08-10T20:43:08.183Z,62.04
2018-08-10T20:44:08.248Z,61.69
2018-08-10T20:45:08.770Z,62.42
2018-08-10T20:46:07.535Z,62.13
2018-08-10T20:47:06.774Z,62.52
2018-08-10T20:51:59.881Z,63.19
2018-08-10T20:54:08.629Z,63.26
2018-08-10T20:54:44.929Z,63.09
2018-08-10T21:05:11.362Z,64.02
2018-08-10T21:14:27.486Z,65.36
2018-08-10T21:15:51.891Z,65.55
2018-08-10T21:20:38.434Z,66.09
2018-08-10T21:21:45.252Z,66.48
2018-08-10T21:22:33.469Z,66.77
2018-08-10T21:23:34.112Z,66.96
2018-08-10T21:24:34.401Z,66.67
2018-08-10T21:25:42.688Z,67.05
